EST,Max TemperatureF,Mean TemperatureF,Min TemperatureF,Max Dew PointF,MeanDew PointF,Min DewpointF,Max Humidity, Mean Humidity, Min Humidity, Max Sea Level PressureIn, Mean Sea Level PressureIn, Min Sea Level PressureIn, Max VisibilityMiles, Mean VisibilityMiles, Min VisibilityMiles, Max Wind SpeedMPH, Mean Wind SpeedMPH, Max Gust SpeedMPH,PrecipitationIn, CloudCover, Events, WindDirDegrees
2012-11-1,,,,,,,,,,29.78,29.71,29.67,10,10,10,9,3,,0.00,3,,245
2012-11-2,,,,,,,,,,29.94,29.82,29.77,10,10,10,13,5,22,0.00,4,Rain,251
2012-11-3,,,,,,,,,,30.10,30.02,29.94,10,10,10,14,3,23,0.00,3,,299
2012-11-4,,,,,,,,,,30.11,30.06,30.00,10,10,10,7,1,,0.00,4,,323
2012-11-5,50,40,29,32,31,30,100,79,48,30.17,30.09,30.04,10,10,7,9,2,16,0.00,1,,317
2012-11-6,47,36,27,38,32,27,100,80,52,30.19,30.10,29.95,10,10,7,8,2,,0.00,2,,352
2012-11-7,47,42,39,38,35,32,91,76,64,29.95,29.89,29.84,10,10,10,13,6,18,0.00,8,Rain,328
2012-11-8,57,47,37,37,26,17,100,51,22,30.06,29.95,29.89,10,10,10,14,5,24,0.00,3,Rain,290
2012-11-9,59,46,32,38,35,30,100,71,41,30.24,30.18,30.07,10,10,10,10,3,16,0.00,0,,297
2012-11-10,70,51,32,46,40,32,100,73,35,30.38,30.31,30.23,10,10,7,8,1,,0.00,0,,150
2012-11-11,73,58,42,48,45,41,99,68,34,30.48,30.43,30.38,10,10,10,10,4,,0.00,0,,156
2012-11-12,74,61,48,61,56,48,100,82,55,30.44,30.32,30.18,10,9,4,14,5,21,0.00,1,,151
2012-11-13,64,50,36,63,42,30,100,88,66,30.47,30.34,30.16,10,9,3,21,6,31,0.00,5,Rain,331
2012-11-14,48,38,29,34,32,29,100,80,57,30.52,30.47,30.42,10,10,7,12,4,16,0.00,1,,348
2012-11-15,50,41,32,41,37,33,100,78,58,30.42,30.33,30.29,10,10,10,8,3,,0.00,8,Rain-Thunderstorm,351
2012-11-16,52,42,31,40,35,28,98,77,41,30.43,30.34,30.28,10,10,7,10,2,,0.00,3,Rain,342
2012-11-17,53,42,30,40,34,30,99,77,41,30.56,30.52,30.43,10,10,5,9,3,,0.00,1,,350
2012-11-18,55,50,44,41,40,39,85,70,58,30.55,30.51,30.44,10,10,10,12,6,17,0.00,4,,6
2012-11-19,51,49,47,42,41,40,77,72,67,30.44,30.33,30.20,10,10,10,10,7,17,0.00,8,,354
2012-11-20,57,50,43,44,41,39,93,72,54,30.20,30.13,30.08,10,10,10,8,3,,0.00,6,,352
2012-11-21,56,44,32,42,35,30,99,77,37,30.21,30.16,30.12,10,8,1,9,2,16,0.00,0,,349
2012-11-22,58,44,29,36,31,27,99,73,32,30.26,30.20,30.16,10,10,7,10,2,,0.00,0,,341
2012-11-23,66,46,27,38,32,26,99,60,29,30.16,29.95,29.78,10,10,10,12,3,20,0.00,1,,204
2012-11-24,52,40,26,28,19,15,70,42,30,30.09,29.96,29.81,10,10,10,20,7,29,0.00,1,,301
2012-11-25,48,35,23,20,18,16,82,51,28,30.12,30.04,29.97,10,10,10,13,4,16,0.00,0,,211
2012-11-26,58,46,33,38,27,21,82,55,26,30.22,30.14,30.01,10,10,10,8,2,,0.00,1,,114
2012-11-27,49,42,34,46,39,33,97,86,64,30.25,30.18,30.14,10,9,4,9,4,,0.00,7,Rain,323
2012-11-28,49,38,26,32,28,25,100,77,40,30.39,30.30,30.24,10,8,2,10,2,,0.00,1,,297
2012-11-29,51,36,21,32,26,20,96,75,37,30.48,30.41,30.37,10,10,10,8,1,,0.00,0,,177
2012-11-30,52,40,28,35,31,27,99,76,46,30.38,30.34,30.30,10,10,4,6,3,,0.00,0,,177